sensor_id;sensor_type;location;lat;lon;timestamp;pressure;altitude;pressure_sealevel;temperature;humidity
69713;BME280;56980;51.826;4.424;2022-09-24T00:00:56;101372.09;;;15.91;78.93
69713;BME280;56980;51.826;4.424;2022-09-24T00:03:23;101385.59;;;15.95;79.00
69713;BME280;56980;51.826;4.424;2022-09-24T00:05:53;101382.88;;;15.85;79.00
69713;BME280;56980;51.826;4.424;2022-09-24T00:08:19;101377.47;;;15.67;80.03
69713;BME280;56980;51.826;4.424;2022-09-24T00:10:46;101379.47;;;15.58;79.83
69713;BME280;56980;51.826;4.424;2022-09-24T00:13:15;101380.47;;;15.88;78.93
69713;BME280;56980;51.826;4.424;2022-09-24T00:15:46;101385.31;;;15.83;79.11
69713;BME280;56980;51.826;4.424;2022-09-24T00:18:14;101367.44;;;15.82;79.12
69713;BME280;56980;51.826;4.424;2022-09-24T00:20:39;101372.09;;;15.91;78.56
69713;BME280;56980;51.826;4.424;2022-09-24T00:23:07;101362.03;;;15.97;78.49
69713;BME280;56980;51.826;4.424;2022-09-24T00:25:39;101373.06;;;16.12;77.98
69713;BME280;56980;51.826;4.424;2022-09-24T00:28:23;101357.28;;;16.16;78.00
69713;BME280;56980;51.826;4.424;2022-09-24T00:30:48;101350.09;;;15.85;78.98
69713;BME280;56980;51.826;4.424;2022-09-24T00:33:14;101364.63;;;16.01;78.94
69713;BME280;56980;51.826;4.424;2022-09-24T00:35:39;101357.19;;;16.01;78.69
69713;BME280;56980;51.826;4.424;2022-09-24T00:38:06;101361.72;;;16.04;78.17
69713;BME280;56980;51.826;4.424;2022-09-24T00:40:34;101349.09;;;16.07;78.18
69713;BME280;56980;51.826;4.424;2022-09-24T00:43:00;101357.19;;;15.92;78.65
69713;BME280;56980;51.826;4.424;2022-09-24T00:45:29;101353.06;;;16.06;78.21
69713;BME280;56980;51.826;4.424;2022-09-24T00:47:57;101343.06;;;16.03;78.11
69713;BME280;56980;51.826;4.424;2022-09-24T00:53:04;101356.13;;;15.99;78.00
69713;BME280;56980;51.826;4.424;2022-09-24T00:55:32;101350.63;;;16.08;77.94
69713;BME280;56980;51.826;4.424;2022-09-24T00:58:02;101331.91;;;15.73;79.12
69713;BME280;56980;51.826;4.424;2022-09-24T01:00:27;101346.41;;;15.98;78.27
69713;BME280;56980;51.826;4.424;2022-09-24T01:02:57;101344.13;;;15.96;78.61
69713;BME280;56980;51.826;4.424;2022-09-24T01:05:25;101336.72;;;15.88;78.83
69713;BME280;56980;51.826;4.424;2022-09-24T01:07:50;101341.88;;;15.95;78.15
69713;BME280;56980;51.826;4.424;2022-09-24T01:10:18;101342.03;;;15.91;78.56
69713;BME280;56980;51.826;4.424;2022-09-24T01:16:14;101345.50;;;16.01;78.41
69713;BME280;56980;51.826;4.424;2022-09-24T01:29:31;101321.53;;;15.96;78.57
69713;BME280;56980;51.826;4.424;2022-09-24T01:32:14;101315.13;;;15.99;77.97
69713;BME280;56980;51.826;4.424;2022-09-24T01:34:46;101318.91;;;16.01;77.84
69713;BME280;56980;51.826;4.424;2022-09-24T01:37:16;101324.94;;;16.05;77.95
69713;BME280;56980;51.826;4.424;2022-09-24T01:39:45;101318.47;;;15.94;78.17
69713;BME280;56980;51.826;4.424;2022-09-24T01:42:12;101326.03;;;15.99;78.40
69713;BME280;56980;51.826;4.424;2022-09-24T01:44:39;101317.72;;;15.93;78.36
69713;BME280;56980;51.826;4.424;2022-09-24T01:47:10;101318.47;;;15.94;78.33
69713;BME280;56980;51.826;4.424;2022-09-24T01:49:39;101304.19;;;15.99;78.40
69713;BME280;56980;51.826;4.424;2022-09-24T01:52:08;101309.94;;;16.01;78.10
69713;BME280;56980;51.826;4.424;2022-09-24T01:54:38;101308.84;;;16.07;78.20
69713;BME280;56980;51.826;4.424;2022-09-24T01:57:12;101299.13;;;16.06;78.27
69713;BME280;56980;51.826;4.424;2022-09-24T01:59:54;101286.59;;;15.91;78.31
69713;BME280;56980;51.826;4.424;2022-09-24T02:02:40;101279.00;;;15.95;78.01
69713;BME280;56980;51.826;4.424;2022-09-24T02:05:24;101289.25;;;16.09;77.84
69713;BME280;56980;51.826;4.424;2022-09-24T02:08:06;101296.84;;;16.05;78.05
69713;BME280;56980;51.826;4.424;2022-09-24T02:10:43;101271.97;;;16.03;78.21
69713;BME280;56980;51.826;4.424;2022-09-24T02:13:11;101267.72;;;16.02;78.36
69713;BME280;56980;51.826;4.424;2022-09-24T02:15:41;101261.50;;;16.01;78.35
69713;BME280;56980;51.826;4.424;2022-09-24T02:18:11;101261.91;;;16.09;78.48
69713;BME280;56980;51.826;4.424;2022-09-24T02:20:41;101268.59;;;16.08;78.08
69713;BME280;56980;51.826;4.424;2022-09-24T02:23:08;101260.44;;;15.99;78.55
69713;BME280;56980;51.826;4.424;2022-09-24T02:25:47;101266.22;;;16.01;78.44
69713;BME280;56980;51.826;4.424;2022-09-24T02:28:16;101245.56;;;16.00;78.43
69713;BME280;56980;51.826;4.424;2022-09-24T02:30:47;101261.91;;;16.09;78.60
69713;BME280;56980;51.826;4.424;2022-09-24T02:33:14;101245.22;;;16.07;78.45
69713;BME280;56980;51.826;4.424;2022-09-24T02:35:59;101244.03;;;15.99;78.21
69713;BME280;56980;51.826;4.424;2022-09-24T02:38:25;101252.97;;;16.08;78.13
69713;BME280;56980;51.826;4.424;2022-09-24T02:40:50;101230.25;;;15.93;78.44
69713;BME280;56980;51.826;4.424;2022-09-24T02:43:17;101241.59;;;16.01;78.53
69713;BME280;56980;51.826;4.424;2022-09-24T02:45:42;101234.97;;;15.93;78.37
69713;BME280;56980;51.826;4.424;2022-09-24T02:48:07;101240.09;;;16.00;78.72
69713;BME280;56980;51.826;4.424;2022-09-24T02:50:33;101248.59;;;16.02;78.68
69713;BME280;56980;51.826;4.424;2022-09-24T02:52:58;101240.50;;;16.07;78.60
69713;BME280;56980;51.826;4.424;2022-09-24T02:55:23;101236.13;;;16.01;78.80
69713;BME280;56980;51.826;4.424;2022-09-24T02:57:49;101242.78;;;16.09;78.39
69713;BME280;56980;51.826;4.424;2022-09-24T03:00:14;101235.03;;;16.07;78.57
69713;BME280;56980;51.826;4.424;2022-09-24T03:02:40;101246.38;;;16.15;78.56
69713;BME280;56980;51.826;4.424;2022-09-24T03:05:05;101254.84;;;16.17;78.30
69713;BME280;56980;51.826;4.424;2022-09-24T03:07:31;101254.84;;;16.17;78.39
69713;BME280;56980;51.826;4.424;2022-09-24T03:09:56;101244.56;;;16.12;78.18
69713;BME280;56980;51.826;4.424;2022-09-24T03:12:23;101249.16;;;16.06;78.68
69713;BME280;56980;51.826;4.424;2022-09-24T03:14:49;101250.03;;;16.12;78.44
69713;BME280;56980;51.826;4.424;2022-09-24T03:17:15;101252.00;;;16.11;78.47
69713;BME280;56980;51.826;4.424;2022-09-24T03:19:40;101247.31;;;16.12;78.63
69713;BME280;56980;51.826;4.424;2022-09-24T03:22:06;101250.34;;;16.14;78.76
69713;BME280;56980;51.826;4.424;2022-09-24T03:24:31;101253.28;;;16.25;78.21
69713;BME280;56980;51.826;4.424;2022-09-24T03:26:56;101243.34;;;16.13;78.67
69713;BME280;56980;51.826;4.424;2022-09-24T03:29:22;101249.69;;;16.19;78.73
69713;BME280;56980;51.826;4.424;2022-09-24T03:32:07;101256.03;;;16.25;78.40
69713;BME280;56980;51.826;4.424;2022-09-24T03:34:33;101244.78;;;16.23;78.49
69713;BME280;56980;51.826;4.424;2022-09-24T03:36:58;101238.88;;;16.24;78.50
69713;BME280;56980;51.826;4.424;2022-09-24T03:39:23;101243.00;;;16.20;78.56
69713;BME280;56980;51.826;4.424;2022-09-24T03:41:49;101253.00;;;16.23;78.73
69713;BME280;56980;51.826;4.424;2022-09-24T03:44:14;101227.88;;;16.10;78.96
69713;BME280;56980;51.826;4.424;2022-09-24T03:46:39;101248.78;;;16.22;78.70
69713;BME280;56980;51.826;4.424;2022-09-24T03:49:05;101250.25;;;16.23;78.57
69713;BME280;56980;51.826;4.424;2022-09-24T03:51:30;101244.53;;;16.21;78.95
69713;BME280;56980;51.826;4.424;2022-09-24T03:53:55;101238.09;;;16.24;78.79
69713;BME280;56980;51.826;4.424;2022-09-24T03:56:21;101241.13;;;16.26;78.87
69713;BME280;56980;51.826;4.424;2022-09-24T03:58:46;101240.28;;;16.20;79.13
69713;BME280;56980;51.826;4.424;2022-09-24T04:01:12;101240.47;;;16.31;78.48
69713;BME280;56980;51.826;4.424;2022-09-24T04:03:39;101227.16;;;16.24;78.46
69713;BME280;56980;51.826;4.424;2022-09-24T04:06:05;101238.75;;;16.19;78.71
69713;BME280;56980;51.826;4.424;2022-09-24T04:08:31;101233.13;;;16.22;78.64
69713;BME280;56980;51.826;4.424;2022-09-24T04:10:57;101238.69;;;16.28;78.56
69713;BME280;56980;51.826;4.424;2022-09-24T04:13:22;101239.28;;;16.32;78.70
69713;BME280;56980;51.826;4.424;2022-09-24T04:15:48;101241.69;;;16.30;78.65
69713;BME280;56980;51.826;4.424;2022-09-24T04:18:14;101237.34;;;16.23;78.70
69713;BME280;56980;51.826;4.424;2022-09-24T04:20:40;101234.16;;;16.25;78.94
69713;BME280;56980;51.826;4.424;2022-09-24T04:23:06;101234.00;;;16.29;78.89
69713;BME280;56980;51.826;4.424;2022-09-24T04:25:32;101234.16;;;16.25;78.87
69713;BME280;56980;51.826;4.424;2022-09-24T04:28:04;101223.22;;;16.25;78.85
69713;BME280;56980;51.826;4.424;2022-09-24T04:30:31;101224.72;;;16.26;78.70
69713;BME280;56980;51.826;4.424;2022-09-24T04:32:57;101212.72;;;16.23;78.63
69713;BME280;56980;51.826;4.424;2022-09-24T04:35:24;101207.81;;;16.13;79.01
69713;BME280;56980;51.826;4.424;2022-09-24T04:37:50;101224.72;;;16.26;79.02
69713;BME280;56980;51.826;4.424;2022-09-24T04:40:16;101219.25;;;16.26;79.00
69713;BME280;56980;51.826;4.424;2022-09-24T04:42:43;101230.59;;;16.34;78.90
69713;BME280;56980;51.826;4.424;2022-09-24T04:45:11;101220.31;;;16.29;78.91
69713;BME280;56980;51.826;4.424;2022-09-24T04:47:37;101234.41;;;16.36;78.89
69713;BME280;56980;51.826;4.424;2022-09-24T04:50:05;101237.47;;;16.29;79.29
69713;BME280;56980;51.826;4.424;2022-09-24T04:52:31;101231.13;;;16.23;79.37
69713;BME280;56980;51.826;4.424;2022-09-24T04:54:58;101232.63;;;16.24;79.00
69713;BME280;56980;51.826;4.424;2022-09-24T04:57:24;101238.41;;;16.26;79.30
69713;BME280;56980;51.826;4.424;2022-09-24T04:59:49;101230.97;;;16.27;78.91
69713;BME280;56980;51.826;4.424;2022-09-24T05:02:15;101233.22;;;16.28;78.91
69713;BME280;56980;51.826;4.424;2022-09-24T05:04:41;101224.16;;;16.22;78.60
69713;BME280;56980;51.826;4.424;2022-09-24T05:07:10;101228.69;;;16.25;79.06
69713;BME280;56980;51.826;4.424;2022-09-24T05:09:36;101245.38;;;16.27;78.78
69713;BME280;56980;51.826;4.424;2022-09-24T05:12:03;101248.41;;;16.29;78.50
69713;BME280;56980;51.826;4.424;2022-09-24T05:14:29;101232.63;;;16.24;78.76
69713;BME280;56980;51.826;4.424;2022-09-24T05:16:54;101246.91;;;16.28;79.00
69713;BME280;56980;51.826;4.424;2022-09-24T05:19:20;101250.16;;;16.17;79.22
69713;BME280;56980;51.826;4.424;2022-09-24T05:21:46;101251.22;;;16.20;79.45
69713;BME280;56980;51.826;4.424;2022-09-24T05:24:11;101238.75;;;15.95;79.68
69713;BME280;56980;51.826;4.424;2022-09-24T05:26:37;101249.97;;;15.97;80.31
69713;BME280;56980;51.826;4.424;2022-09-24T05:29:21;101256.81;;;15.93;80.59
69713;BME280;56980;51.826;4.424;2022-09-24T05:31:46;101255.16;;;15.95;80.33
69713;BME280;56980;51.826;4.424;2022-09-24T05:34:12;101245.78;;;15.54;82.59
69713;BME280;56980;51.826;4.424;2022-09-24T05:36:38;101257.91;;;15.62;82.68
69713;BME280;56980;51.826;4.424;2022-09-24T05:39:07;101252.28;;;15.57;82.52
69713;BME280;56980;51.826;4.424;2022-09-24T05:41:37;101259.88;;;15.62;82.77
69713;BME280;56980;51.826;4.424;2022-09-24T05:44:06;101244.81;;;15.66;82.05
69713;BME280;56980;51.826;4.424;2022-09-24T05:46:37;101242.31;;;15.77;82.39
69713;BME280;56980;51.826;4.424;2022-09-24T05:49:18;101244.38;;;15.92;82.10
69713;BME280;56980;51.826;4.424;2022-09-24T05:51:43;101243.41;;;16.04;81.43
69713;BME280;56980;51.826;4.424;2022-09-24T05:54:08;101247.56;;;15.90;81.24
69713;BME280;56980;51.826;4.424;2022-09-24T05:56:36;101257.00;;;15.89;82.12
69713;BME280;56980;51.826;4.424;2022-09-24T05:59:01;101259.34;;;15.72;82.66
69713;BME280;56980;51.826;4.424;2022-09-24T06:01:27;101242.53;;;15.65;82.53
69713;BME280;56980;51.826;4.424;2022-09-24T06:03:56;101255.41;;;15.73;82.82
69713;BME280;56980;51.826;4.424;2022-09-24T06:06:22;101259.56;;;15.93;82.29
69713;BME280;56980;51.826;4.424;2022-09-24T06:08:48;101269.78;;;15.83;82.26
69713;BME280;56980;51.826;4.424;2022-09-24T06:11:13;101266.91;;;15.77;82.83
69713;BME280;56980;51.826;4.424;2022-09-24T06:13:38;101272.88;;;15.67;83.09
69713;BME280;56980;51.826;4.424;2022-09-24T06:16:06;101269.91;;;15.46;83.74
69713;BME280;56980;51.826;4.424;2022-09-24T06:18:34;101264.88;;;15.45;84.44
69713;BME280;56980;51.826;4.424;2022-09-24T06:21:01;101270.34;;;15.54;83.34
69713;BME280;56980;51.826;4.424;2022-09-24T06:23:27;101282.09;;;15.78;83.37
69713;BME280;56980;51.826;4.424;2022-09-24T06:25:53;101270.47;;;15.51;84.13
69713;BME280;56980;51.826;4.424;2022-09-24T06:28:19;101276.09;;;15.56;84.15
69713;BME280;56980;51.826;4.424;2022-09-24T06:30:44;101272.31;;;15.44;84.44
69713;BME280;56980;51.826;4.424;2022-09-24T06:33:11;101281.19;;;15.81;82.91
69713;BME280;56980;51.826;4.424;2022-09-24T06:35:39;101289.97;;;15.85;82.57
69713;BME280;56980;51.826;4.424;2022-09-24T06:38:05;101281.03;;;15.76;83.06
69713;BME280;56980;51.826;4.424;2022-09-24T06:40:32;101299.56;;;15.81;82.55
69713;BME280;56980;51.826;4.424;2022-09-24T06:42:58;101289.09;;;15.70;83.08
69713;BME280;56980;51.826;4.424;2022-09-24T06:45:23;101293.41;;;15.62;83.28
69713;BME280;56980;51.826;4.424;2022-09-24T06:47:57;101301.53;;;15.80;82.85
69713;BME280;56980;51.826;4.424;2022-09-24T06:50:25;101303.38;;;15.74;82.59
69713;BME280;56980;51.826;4.424;2022-09-24T06:52:50;101303.41;;;15.65;82.73
69713;BME280;56980;51.826;4.424;2022-09-24T06:55:17;101302.16;;;15.75;82.19
69713;BME280;56980;51.826;4.424;2022-09-24T06:57:43;101304.22;;;15.90;81.73
69713;BME280;56980;51.826;4.424;2022-09-24T07:00:09;101302.31;;;15.72;81.84
69713;BME280;56980;51.826;4.424;2022-09-24T07:02:35;101316.59;;;15.67;82.17
69713;BME280;56980;51.826;4.424;2022-09-24T07:05:00;101311.59;;;15.65;82.53
69713;BME280;56980;51.826;4.424;2022-09-24T07:07:26;101316.34;;;15.56;82.59
69713;BME280;56980;51.826;4.424;2022-09-24T07:09:58;101310.13;;;15.55;82.52
69713;BME280;56980;51.826;4.424;2022-09-24T07:12:24;101322.22;;;15.63;82.83
69713;BME280;56980;51.826;4.424;2022-09-24T07:14:50;101319.66;;;15.69;82.40
69713;BME280;56980;51.826;4.424;2022-09-24T07:17:15;101325.75;;;15.55;82.64
69713;BME280;56980;51.826;4.424;2022-09-24T07:19:41;101329.53;;;15.57;81.91
69713;BME280;56980;51.826;4.424;2022-09-24T07:22:07;101324.97;;;15.96;81.10
69713;BME280;56980;51.826;4.424;2022-09-24T07:24:32;101326.34;;;16.01;80.65
69713;BME280;56980;51.826;4.424;2022-09-24T07:26:58;101317.53;;;15.97;80.27
69713;BME280;56980;51.826;4.424;2022-09-24T07:29:23;101320.34;;;15.88;80.99
69713;BME280;56980;51.826;4.424;2022-09-24T07:31:49;101322.94;;;15.82;81.44
69713;BME280;56980;51.826;4.424;2022-09-24T07:34:14;101319.22;;;15.61;81.79
69713;BME280;56980;51.826;4.424;2022-09-24T07:36:41;101329.75;;;15.87;81.23
69713;BME280;56980;51.826;4.424;2022-09-24T07:39:07;101330.97;;;15.76;81.17
69713;BME280;56980;51.826;4.424;2022-09-24T07:41:33;101329.44;;;15.84;81.01
69713;BME280;56980;51.826;4.424;2022-09-24T07:43:59;101329.44;;;15.84;80.93
69713;BME280;56980;51.826;4.424;2022-09-24T07:46:24;101327.22;;;15.65;81.58
69713;BME280;56980;51.826;4.424;2022-09-24T07:48:53;101326.03;;;15.66;82.09
69713;BME280;56980;51.826;4.424;2022-09-24T07:51:21;101333.13;;;15.72;81.71
69713;BME280;56980;51.826;4.424;2022-09-24T07:53:47;101345.81;;;15.94;80.71
69713;BME280;56980;51.826;4.424;2022-09-24T07:56:13;101340.69;;;15.77;81.42
69713;BME280;56980;51.826;4.424;2022-09-24T07:58:39;101338.78;;;15.69;81.28
69713;BME280;56980;51.826;4.424;2022-09-24T08:01:06;101340.13;;;15.64;81.27
69713;BME280;56980;51.826;4.424;2022-09-24T08:03:31;101353.66;;;15.59;80.83
69713;BME280;56980;51.826;4.424;2022-09-24T08:05:57;101354.13;;;15.48;81.25
69713;BME280;56980;51.826;4.424;2022-09-24T08:08:24;101351.69;;;15.41;81.17
69713;BME280;56980;51.826;4.424;2022-09-24T08:10:49;101361.09;;;15.31;81.67
69713;BME280;56980;51.826;4.424;2022-09-24T08:13:15;101361.44;;;15.15;82.08
69713;BME280;56980;51.826;4.424;2022-09-24T08:15:40;101365.22;;;15.08;82.48
69713;BME280;56980;51.826;4.424;2022-09-24T08:18:06;101371.13;;;15.25;82.42
69713;BME280;56980;51.826;4.424;2022-09-24T08:20:32;101371.56;;;15.23;81.94
69713;BME280;56980;51.826;4.424;2022-09-24T08:23:07;101370.84;;;15.14;82.55
69713;BME280;56980;51.826;4.424;2022-09-24T08:25:34;101370.81;;;15.23;82.26
69713;BME280;56980;51.826;4.424;2022-09-24T08:28:03;101374.00;;;15.03;82.79
69713;BME280;56980;51.826;4.424;2022-09-24T08:30:29;101375.22;;;14.93;83.11
69713;BME280;56980;51.826;4.424;2022-09-24T08:32:56;101388.25;;;14.98;83.00
69713;BME280;56980;51.826;4.424;2022-09-24T08:35:22;101394.81;;;15.28;82.46
69713;BME280;56980;51.826;4.424;2022-09-24T08:37:48;101386.13;;;15.11;83.01
69713;BME280;56980;51.826;4.424;2022-09-24T08:40:18;101396.63;;;15.22;83.22
69713;BME280;56980;51.826;4.424;2022-09-24T08:42:54;101399.19;;;15.34;82.63
69713;BME280;56980;51.826;4.424;2022-09-24T08:45:23;101405.09;;;15.24;82.95
69713;BME280;56980;51.826;4.424;2022-09-24T08:48:16;101406.28;;;15.50;82.63
69713;BME280;56980;51.826;4.424;2022-09-24T08:50:55;101408.75;;;15.48;82.61
69713;BME280;56980;51.826;4.424;2022-09-24T08:56:09;101418.44;;;15.49;81.75
69713;BME280;56980;51.826;4.424;2022-09-24T09:01:13;101412.69;;;15.38;82.03
69713;BME280;56980;51.826;4.424;2022-09-24T09:03:45;101426.19;;;15.41;81.78
69713;BME280;56980;51.826;4.424;2022-09-24T09:09:23;101427.41;;;15.68;80.41
69713;BME280;56980;51.826;4.424;2022-09-24T09:11:51;101421.06;;;15.62;80.59
69713;BME280;56980;51.826;4.424;2022-09-24T09:14:40;101423.13;;;15.76;80.34
69713;BME280;56980;51.826;4.424;2022-09-24T09:17:32;101428.16;;;15.77;80.48
69713;BME280;56980;51.826;4.424;2022-09-24T09:20:02;101429.63;;;15.97;79.30
69713;BME280;56980;51.826;4.424;2022-09-24T09:22:35;101419.50;;;15.70;79.18
69713;BME280;56980;51.826;4.424;2022-09-24T09:25:12;101434.19;;;16.00;78.83
69713;BME280;56980;51.826;4.424;2022-09-24T09:27:39;101420.13;;;15.74;79.01
69713;BME280;56980;51.826;4.424;2022-09-24T09:30:12;101428.91;;;15.87;78.18
69713;BME280;56980;51.826;4.424;2022-09-24T09:32:52;101438.31;;;15.86;78.53
69713;BME280;56980;51.826;4.424;2022-09-24T09:38:33;101440.59;;;15.69;77.62
69713;BME280;56980;51.826;4.424;2022-09-24T09:43:40;101442.25;;;15.76;77.03
69713;BME280;56980;51.826;4.424;2022-09-24T09:48:44;101447.28;;;15.77;76.45
69713;BME280;56980;51.826;4.424;2022-09-24T09:51:19;101448.66;;;15.82;76.48
69713;BME280;56980;51.826;4.424;2022-09-24T09:54:02;101450.88;;;16.02;75.33
69713;BME280;56980;51.826;4.424;2022-09-24T09:56:34;101447.28;;;15.77;75.97
69713;BME280;56980;51.826;4.424;2022-09-24T09:59:07;101440.16;;;15.80;76.10
69713;BME280;56980;51.826;4.424;2022-09-24T10:01:42;101447.28;;;15.77;76.30
69713;BME280;56980;51.826;4.424;2022-09-24T10:04:42;101447.22;;;16.05;75.24
69713;BME280;56980;51.826;4.424;2022-09-24T10:07:13;101435.41;;;15.90;74.93
69713;BME280;56980;51.826;4.424;2022-09-24T10:09:43;101449.38;;;16.01;75.38
69713;BME280;56980;51.826;4.424;2022-09-24T10:12:21;101446.44;;;16.13;74.89
69713;BME280;56980;51.826;4.424;2022-09-24T10:15:03;101445.44;;;15.93;75.86
69713;BME280;56980;51.826;4.424;2022-09-24T10:17:37;101444.25;;;15.57;75.49
69713;BME280;56980;51.826;4.424;2022-09-24T10:20:36;101453.66;;;15.74;75.09
69713;BME280;56980;51.826;4.424;2022-09-24T10:23:04;101454.25;;;15.78;75.54
69713;BME280;56980;51.826;4.424;2022-09-24T10:25:31;101451.84;;;15.80;74.89
69713;BME280;56980;51.826;4.424;2022-09-24T10:28:06;101438.19;;;15.71;75.29
69713;BME280;56980;51.826;4.424;2022-09-24T10:30:50;101458.22;;;15.77;73.95
69713;BME280;56980;51.826;4.424;2022-09-24T10:33:17;101449.97;;;16.05;73.55
69713;BME280;56980;51.826;4.424;2022-09-24T10:35:43;101450.00;;;15.87;74.23
69713;BME280;56980;51.826;4.424;2022-09-24T10:38:19;101454.97;;;15.97;74.62
69713;BME280;56980;51.826;4.424;2022-09-24T10:40:46;101454.56;;;15.80;74.11
69713;BME280;56980;51.826;4.424;2022-09-24T10:43:21;101450.28;;;15.98;73.06
69713;BME280;56980;51.826;4.424;2022-09-24T10:45:58;101459.72;;;15.88;73.23
69713;BME280;56980;51.826;4.424;2022-09-24T10:48:37;101458.66;;;15.85;73.29
69713;BME280;56980;51.826;4.424;2022-09-24T10:54:16;101466.84;;;15.76;73.27
69713;BME280;56980;51.826;4.424;2022-09-24T10:56:48;101461.25;;;15.70;73.68
69713;BME280;56980;51.826;4.424;2022-09-24T11:09:52;101471.56;;;15.48;74.42
69713;BME280;56980;51.826;4.424;2022-09-24T11:12:34;101484.19;;;15.64;74.75
69713;BME280;56980;51.826;4.424;2022-09-24T11:15:21;101491.28;;;15.52;74.58
69713;BME280;56980;51.826;4.424;2022-09-24T11:18:17;101481.28;;;15.58;75.36
69713;BME280;56980;51.826;4.424;2022-09-24T11:26:57;101480.69;;;15.81;74.29
69713;BME280;56980;51.826;4.424;2022-09-24T11:35:13;101490.09;;;15.80;73.07
69713;BME280;56980;51.826;4.424;2022-09-24T11:37:51;101489.16;;;15.93;73.26
69713;BME280;56980;51.826;4.424;2022-09-24T11:46:14;101500.41;;;15.85;74.14
69713;BME280;56980;51.826;4.424;2022-09-24T12:02:21;101499.50;;;15.89;71.70
69713;BME280;56980;51.826;4.424;2022-09-24T12:05:16;101497.06;;;16.00;71.24
69713;BME280;56980;51.826;4.424;2022-09-24T12:07:59;101501.94;;;15.96;70.65
69713;BME280;56980;51.826;4.424;2022-09-24T12:10:42;101491.13;;;16.01;70.51
69713;BME280;56980;51.826;4.424;2022-09-24T12:13:33;101503.25;;;16.18;70.51
69713;BME280;56980;51.826;4.424;2022-09-24T12:16:05;101498.88;;;15.94;70.41
69713;BME280;56980;51.826;4.424;2022-09-24T12:18:37;101499.19;;;15.87;70.49
69713;BME280;56980;51.826;4.424;2022-09-24T12:21:07;101504.94;;;15.98;70.64
69713;BME280;56980;51.826;4.424;2022-09-24T12:23:38;101509.78;;;16.12;70.59
69713;BME280;56980;51.826;4.424;2022-09-24T12:26:05;101502.84;;;15.83;70.87
69713;BME280;56980;51.826;4.424;2022-09-24T12:32:12;101503.41;;;16.06;72.19
69713;BME280;56980;51.826;4.424;2022-09-24T12:44:13;101506.94;;;15.88;70.25
69713;BME280;56980;51.826;4.424;2022-09-24T12:46:47;101506.50;;;15.80;69.47
69713;BME280;56980;51.826;4.424;2022-09-24T12:51:52;101503.09;;;16.13;68.31
69713;BME280;56980;51.826;4.424;2022-09-24T12:54:37;101504.94;;;15.98;67.53
69713;BME280;56980;51.826;4.424;2022-09-24T12:57:23;101503.72;;;15.99;67.25
69713;BME280;56980;51.826;4.424;2022-09-24T12:59:54;101520.56;;;16.15;67.01
69713;BME280;56980;51.826;4.424;2022-09-24T13:02:25;101509.34;;;16.04;67.31
69713;BME280;56980;51.826;4.424;2022-09-24T13:07:34;101520.41;;;16.19;67.05
69713;BME280;56980;51.826;4.424;2022-09-24T13:12:41;101515.84;;;16.25;67.37
69713;BME280;56980;51.826;4.424;2022-09-24T13:15:26;101516.16;;;16.18;68.20
69713;BME280;56980;51.826;4.424;2022-09-24T13:18:03;101509.47;;;16.19;67.42
69713;BME280;56980;51.826;4.424;2022-09-24T13:20:31;101507.47;;;16.29;68.35
69713;BME280;56980;51.826;4.424;2022-09-24T13:25:38;101507.13;;;16.45;67.89
69713;BME280;56980;51.826;4.424;2022-09-24T13:28:25;101515.81;;;16.34;68.17
69713;BME280;56980;51.826;4.424;2022-09-24T13:30:57;101517.94;;;16.39;68.13
69713;BME280;56980;51.826;4.424;2022-09-24T13:33:30;101516.78;;;16.64;68.71
69713;BME280;56980;51.826;4.424;2022-09-24T13:38:34;101509.66;;;16.57;69.73
69713;BME280;56980;51.826;4.424;2022-09-24T13:41:22;101520.03;;;16.95;69.51
69713;BME280;56980;51.826;4.424;2022-09-24T13:44:03;101525.72;;;16.83;70.32
69713;BME280;56980;51.826;4.424;2022-09-24T13:46:30;101519.91;;;16.90;70.48
69713;BME280;56980;51.826;4.424;2022-09-24T13:49:01;101522.78;;;16.86;70.55
69713;BME280;56980;51.826;4.424;2022-09-24T13:51:33;101521.94;;;17.04;70.06
69713;BME280;56980;51.826;4.424;2022-09-24T13:54:29;101519.41;;;16.91;69.70
69713;BME280;56980;51.826;4.424;2022-09-24T13:57:23;101529.88;;;17.26;69.99
69713;BME280;56980;51.826;4.424;2022-09-24T14:02:43;101527.16;;;16.93;69.81
69713;BME280;56980;51.826;4.424;2022-09-24T14:05:16;101527.81;;;17.12;69.99
69713;BME280;56980;51.826;4.424;2022-09-24T14:07:55;101525.59;;;17.25;69.83
69713;BME280;56980;51.826;4.424;2022-09-24T14:10:21;101526.84;;;17.24;69.86
69713;BME280;56980;51.826;4.424;2022-09-24T14:12:59;101522.47;;;17.17;68.38
69713;BME280;56980;51.826;4.424;2022-09-24T14:15:24;101510.06;;;17.07;68.08
69713;BME280;56980;51.826;4.424;2022-09-24T14:17:57;101526.63;;;17.36;68.48
69713;BME280;56980;51.826;4.424;2022-09-24T14:20:25;101517.53;;;17.30;68.32
69713;BME280;56980;51.826;4.424;2022-09-24T14:22:53;101531.63;;;17.14;67.61
69713;BME280;56980;51.826;4.424;2022-09-24T14:25:28;101523.75;;;17.31;67.25
69713;BME280;56980;51.826;4.424;2022-09-24T14:27:57;101528.41;;;17.39;66.72
69713;BME280;56980;51.826;4.424;2022-09-24T14:30:26;101534.19;;;17.41;65.58
69713;BME280;56980;51.826;4.424;2022-09-24T14:33:01;101527.38;;;17.37;64.89
69713;BME280;56980;51.826;4.424;2022-09-24T14:35:34;101532.44;;;17.29;65.42
69713;BME280;56980;51.826;4.424;2022-09-24T14:38:24;101532.25;;;17.33;64.95
69713;BME280;56980;51.826;4.424;2022-09-24T14:41:16;101543.81;;;17.37;65.04
69713;BME280;56980;51.826;4.424;2022-09-24T14:43:47;101538.44;;;17.42;65.71
69713;BME280;56980;51.826;4.424;2022-09-24T14:46:19;101539.63;;;17.51;65.25
69713;BME280;56980;51.826;4.424;2022-09-24T14:48:46;101544.13;;;17.63;64.79
69713;BME280;56980;51.826;4.424;2022-09-24T14:51:29;101554.59;;;17.40;65.39
69713;BME280;56980;51.826;4.424;2022-09-24T14:54:00;101542.34;;;17.27;65.10